createdAt,value
2019-02-04T00:00:32.625Z,6.45
2019-02-04T00:04:02.848Z,3.6
2019-02-04T00:07:32.972Z,5.08
2019-02-04T00:11:03.076Z,4.05
2019-02-04T00:14:33.161Z,6.41
2019-02-04T00:18:04.042Z,5.62
2019-02-04T00:21:34.186Z,5.28
2019-02-04T00:25:04.359Z,5.03
2019-02-04T00:28:34.513Z,4.58
2019-02-04T00:32:04.636Z,5.69
2019-02-04T00:35:34.810Z,5.36
2019-02-04T00:39:06.313Z,4.28
2019-02-04T00:42:36.338Z,3.7
2019-02-04T00:46:06.771Z,5
2019-02-04T00:49:37.034Z,4.79
2019-02-04T00:53:07.168Z,4.19
2019-02-04T00:56:37.291Z,5.33
2019-02-04T01:00:12.215Z,4.59
2019-02-04T01:03:43.516Z,3.14
2019-02-04T01:07:13.632Z,3.95
2019-02-04T01:10:43.776Z,3.59
2019-02-04T01:14:13.859Z,5.35
2019-02-04T01:17:44.032Z,4.51
2019-02-04T01:21:14.136Z,3.15
2019-02-04T01:24:44.297Z,5.19
2019-02-04T01:28:14.422Z,4.75
2019-02-04T01:31:44.616Z,3.88
2019-02-04T01:35:14.870Z,5.03
2019-02-04T01:38:45.453Z,5.14
2019-02-04T01:42:15.598Z,4.09
2019-02-04T01:45:45.870Z,4.15
2019-02-04T01:49:15.954Z,4.8
2019-02-04T01:52:46.232Z,5.39
2019-02-04T01:56:16.271Z,4.61
2019-02-04T01:59:46.306Z,5.51
2019-02-04T02:00:20.827Z,4.74
2019-02-04T02:03:51.949Z,5.64
2019-02-04T02:07:22.433Z,4.65
2019-02-04T02:10:52.746Z,4.91
2019-02-04T02:14:22.851Z,4.23
2019-02-04T02:17:52.986Z,3.85
2019-02-04T02:21:23.107Z,4.58
2019-02-04T02:24:53.220Z,4.96
2019-02-04T02:28:23.315Z,4.94
2019-02-04T02:31:53.348Z,4.74
2019-02-04T02:35:23.486Z,3.6
2019-02-04T02:38:53.564Z,4.18
2019-02-04T02:42:23.738Z,4.64
2019-02-04T02:45:53.833Z,3.86
2019-02-04T02:49:23.966Z,5.64
2019-02-04T02:52:54.104Z,2.81
2019-02-04T02:56:24.222Z,2.45
2019-02-04T02:59:54.236Z,3.25
2019-02-04T03:03:24.329Z,3.44
2019-02-04T03:06:55.503Z,1.49
2019-02-04T03:10:28.288Z,5.84
2019-02-04T03:13:58.313Z,3.99
2019-02-04T03:17:28.454Z,4.39
2019-02-04T03:20:58.648Z,2.53
2019-02-04T03:24:28.779Z,4.81
2019-02-04T03:27:58.855Z,4.45
2019-02-04T03:31:28.959Z,4.47
2019-02-04T03:34:58.952Z,4.28
2019-02-04T03:38:29.165Z,5.01
2019-02-04T03:41:59.269Z,4.18
2019-02-04T03:45:29.422Z,4.41
2019-02-04T03:48:59.725Z,4.36
2019-02-04T03:52:29.884Z,3.76
2019-02-04T03:55:59.942Z,3.04
2019-02-04T03:59:29.983Z,3.53
2019-02-04T04:00:21.037Z,4.72
2019-02-04T04:03:51.183Z,6.5
2019-02-04T04:07:22.244Z,4.64
2019-02-04T04:10:52.368Z,2.96
2019-02-04T04:14:22.501Z,4.07
2019-02-04T04:17:52.944Z,4.19
2019-02-04T04:21:23.298Z,3.32
2019-02-04T04:24:53.382Z,4.65
2019-02-04T04:28:23.415Z,2.85
2019-02-04T04:31:53.450Z,4.3
2019-02-04T04:35:23.607Z,3.61
2019-02-04T04:38:53.566Z,3.55
2019-02-04T04:42:23.669Z,3.7
2019-02-04T04:45:53.822Z,3.9
2019-02-04T04:49:24.066Z,5.45
2019-02-04T04:52:54.200Z,3.96
2019-02-04T04:56:24.444Z,2.83
2019-02-04T04:59:54.527Z,2.61
2019-02-04T05:03:24.651Z,3.08
2019-02-04T05:06:54.829Z,3.35
2019-02-04T05:10:26.008Z,3.46
2019-02-04T05:13:56.132Z,5.11
2019-02-04T05:17:26.175Z,3.99
2019-02-04T05:20:56.558Z,3.08
2019-02-04T05:24:26.622Z,3.74
2019-02-04T05:27:56.725Z,3.42
2019-02-04T05:31:26.888Z,2.04
2019-02-04T05:34:57.624Z,5.4
2019-02-04T05:38:27.807Z,4
2019-02-04T05:41:57.927Z,3.67
2019-02-04T05:45:28.073Z,2.85
2019-02-04T05:48:58.108Z,4.36
2019-02-04T05:52:28.230Z,2.02
2019-02-04T05:55:58.255Z,4.17
2019-02-04T05:59:28.322Z,3.8
2019-02-04T06:00:21.729Z,1.69
2019-02-04T06:03:51.792Z,3.02
2019-02-04T06:07:21.905Z,3.42
2019-02-04T06:10:52.929Z,3.05
2019-02-04T06:14:22.972Z,3.91
2019-02-04T06:17:53.016Z,4.76
2019-02-04T06:21:23.170Z,3.9
2019-02-04T06:24:53.322Z,3.88
2019-02-04T06:28:23.496Z,2.49
2019-02-04T06:31:56.180Z,4.51
2019-02-04T06:35:26.313Z,3.67
2019-02-04T06:38:56.258Z,4.95
2019-02-04T06:42:26.490Z,3.59
2019-02-04T06:45:56.585Z,3.5
2019-02-04T06:49:26.758Z,4.1
2019-02-04T06:52:56.892Z,4.96
2019-02-04T06:56:27.045Z,4.92
2019-02-04T06:59:57.179Z,4.72
2019-02-04T07:03:27.353Z,4.34
2019-02-04T07:06:57.487Z,3.89
2019-02-04T07:10:27.670Z,4.4
2019-02-04T07:13:58.723Z,1.81
2019-02-04T07:17:28.827Z,4.56
2019-02-04T07:20:58.902Z,3.17
2019-02-04T07:24:29.146Z,3.94
2019-02-04T07:27:59.275Z,4.35
2019-02-04T07:31:29.364Z,4.12
2019-02-04T07:34:59.378Z,4.1
2019-02-04T07:38:29.909Z,4.34
2019-02-04T07:42:00.150Z,4.66
2019-02-04T07:45:30.230Z,3.46
2019-02-04T07:49:00.289Z,3.62
2019-02-04T07:52:30.524Z,3.49
2019-02-04T07:56:00.645Z,3.5
2019-02-04T07:59:30.830Z,3.79
2019-02-04T08:00:20.201Z,6.89
2019-02-04T08:03:50.342Z,3.56
2019-02-04T08:07:20.509Z,8.89
2019-02-04T08:10:50.612Z,7.81
2019-02-04T08:14:21.016Z,9.62
2019-02-04T08:17:51.159Z,9.71
2019-02-04T08:21:21.264Z,10.9
2019-02-04T08:24:51.317Z,9.75
2019-02-04T08:28:21.420Z,11.36
2019-02-04T08:31:51.394Z,9.79
2019-02-04T08:35:21.597Z,11.54
2019-02-04T08:38:51.722Z,9.46
2019-02-04T08:42:21.925Z,10.12
2019-02-04T08:45:51.978Z,9.16
2019-02-04T08:49:22.087Z,10.21
2019-02-04T08:52:52.157Z,8.69
2019-02-04T08:56:22.369Z,8.26
2019-02-04T08:59:52.403Z,8.08
2019-02-04T09:03:22.547Z,9.03
2019-02-04T09:06:52.602Z,9.66
2019-02-04T09:10:25.835Z,9.04
2019-02-04T09:13:56.178Z,7.95
2019-02-04T09:17:27.262Z,9.68
2019-02-04T09:20:57.260Z,8.74
2019-02-04T09:24:27.396Z,8.28
2019-02-04T09:27:57.562Z,8.04
2019-02-04T09:31:27.687Z,9.76
2019-02-04T09:34:57.790Z,8.22
2019-02-04T09:38:27.914Z,7.58
2019-02-04T09:41:57.997Z,8.51
2019-02-04T09:45:28.230Z,8.2
2019-02-04T09:48:58.390Z,8.4
2019-02-04T09:52:28.463Z,10.34
2019-02-04T09:55:59.672Z,10.53
2019-02-04T09:59:29.936Z,6.69
2019-02-04T10:00:19.405Z,8.16
2019-02-04T10:03:49.524Z,8.94
2019-02-04T10:07:19.654Z,7.53
2019-02-04T10:10:49.878Z,5.6
2019-02-04T10:14:19.992Z,5.16
2019-02-04T10:17:51.196Z,6.59
2019-02-04T10:21:21.453Z,5.88
2019-02-04T10:24:51.573Z,7.76
2019-02-04T10:28:21.749Z,8.19
2019-02-04T10:31:51.821Z,8.2
2019-02-04T10:35:22.221Z,5.76
2019-02-04T10:38:52.705Z,5.84
2019-02-04T10:42:22.962Z,6.15
2019-02-04T10:45:53.158Z,5.7
2019-02-04T10:49:23.372Z,6.71
2019-02-04T10:52:53.560Z,6.55
2019-02-04T10:56:23.782Z,5.45
2019-02-04T10:59:53.906Z,12.81
2019-02-04T11:03:24.085Z,8.86
2019-02-04T11:06:54.203Z,7.68
2019-02-04T11:10:30.382Z,11.49
2019-02-04T11:14:00.494Z,7.7
2019-02-04T11:17:30.835Z,6.15
2019-02-04T11:21:02.003Z,5.71
2019-02-04T11:24:32.170Z,6.28
2019-02-04T11:28:04.072Z,6.2
2019-02-04T11:31:34.666Z,5.82
2019-02-04T11:35:05.165Z,7.07
2019-02-04T11:38:35.316Z,7.39
2019-02-04T11:42:05.503Z,12.38
2019-02-04T11:45:35.732Z,8.79
2019-02-04T11:49:05.815Z,8.31
2019-02-04T11:52:35.960Z,7.22
2019-02-04T11:56:06.163Z,5.59
2019-02-04T11:59:36.272Z,5.57
2019-02-04T12:00:19.308Z,5.38
2019-02-04T12:03:49.532Z,6.8
2019-02-04T12:07:19.737Z,5.5
2019-02-04T12:10:53.170Z,5.12
2019-02-04T12:14:23.282Z,4.76
2019-02-04T12:17:53.408Z,14.35
2019-02-04T12:21:24.432Z,5.21
2019-02-04T12:24:54.638Z,4.22
2019-02-04T12:28:24.739Z,4.45
2019-02-04T12:31:54.804Z,4.64
2019-02-04T12:35:25.177Z,4.99
2019-02-04T12:38:55.410Z,8.18
2019-02-04T12:42:25.545Z,6.29
2019-02-04T12:45:55.729Z,6.36
2019-02-04T12:49:25.893Z,6.11
2019-02-04T12:52:55.937Z,6
2019-02-04T12:56:26.061Z,4.66
2019-02-04T12:59:56.488Z,5.24
2019-02-04T13:03:26.589Z,5.78
2019-02-04T13:06:56.673Z,6.91
2019-02-04T13:10:26.866Z,7.14
2019-02-04T13:13:56.873Z,4.41
2019-02-04T13:17:27.045Z,5.52
2019-02-04T13:20:57.070Z,5.59
2019-02-04T13:24:28.282Z,6.54
2019-02-04T13:27:58.442Z,6.69
2019-02-04T13:31:28.469Z,4.95
2019-02-04T13:34:58.644Z,6.2
2019-02-04T13:38:28.768Z,6.39
2019-02-04T13:41:58.812Z,7.02
2019-02-04T13:45:29.086Z,8.8
2019-02-04T13:48:59.090Z,8.75
2019-02-04T13:52:29.194Z,5.26
2019-02-04T13:55:59.258Z,3.6
2019-02-04T13:59:29.411Z,4.04
2019-02-04T14:00:17.532Z,6.03
2019-02-04T14:03:48.463Z,5.71
2019-02-04T14:07:21.364Z,5.08
2019-02-04T14:10:51.834Z,5.62
2019-02-04T14:14:22.148Z,4.21
2019-02-04T14:17:52.521Z,4.31
2019-02-04T14:21:22.647Z,5.35
2019-02-04T14:24:52.820Z,5.71
2019-02-04T14:28:23.064Z,5.14
2019-02-04T14:31:53.198Z,8.69
2019-02-04T14:35:23.411Z,6.28
2019-02-04T14:38:53.455Z,8.22
2019-02-04T14:42:23.539Z,11.47
2019-02-04T14:46:32.774Z,6.61
2019-02-04T14:50:33.318Z,4.86
2019-02-04T14:56:42.856Z,10.1
2019-02-04T15:00:57.310Z,8.54
2019-02-04T15:04:36.152Z,8.88
2019-02-04T15:08:33.290Z,10.68
2019-02-04T15:12:15.162Z,14.39
2019-02-04T15:16:09.306Z,13.42
2019-02-04T15:20:20.502Z,17.77
2019-02-04T15:24:30.264Z,18.26
2019-02-04T15:28:09.268Z,14.96
2019-02-04T15:32:21.673Z,12.51
2019-02-04T15:36:42.631Z,6.81
2019-02-04T15:40:22.661Z,5.14
2019-02-04T15:44:04.195Z,5.38
2019-02-04T15:47:48.030Z,6.21
2019-02-04T15:51:23.763Z,44.94
2019-02-04T15:54:54.156Z,54.08
2019-02-04T15:58:24.511Z,41.34
2019-02-04T16:00:17.862Z,18.74
2019-02-04T16:03:47.977Z,4.47
2019-02-04T16:07:18.030Z,4.8
2019-02-04T16:10:48.133Z,3.94
2019-02-04T16:14:18.217Z,2.71
2019-02-04T16:17:48.350Z,2.53
2019-02-04T16:21:18.814Z,2.9
2019-02-04T16:24:49.068Z,3.15
2019-02-04T16:28:20.248Z,3.36
2019-02-04T16:31:50.378Z,7.11
2019-02-04T16:35:20.649Z,5.41
2019-02-04T16:38:50.838Z,3.34
2019-02-04T16:42:20.996Z,4.45
2019-02-04T16:45:51.179Z,4.15
2019-02-04T16:49:21.253Z,4.06
2019-02-04T16:52:51.376Z,2.9
2019-02-04T16:56:21.380Z,4.65
2019-02-04T16:59:51.494Z,14.44
2019-02-04T17:03:21.529Z,11.23
2019-02-04T17:06:51.646Z,8.75
2019-02-04T17:10:22.304Z,8.59
2019-02-04T17:13:52.481Z,6.33
2019-02-04T17:17:22.522Z,9.46
2019-02-04T17:20:52.607Z,6.9
2019-02-04T17:24:22.839Z,6.49
2019-02-04T17:27:53.203Z,7.24
2019-02-04T17:31:24.416Z,8.05
2019-02-04T17:34:54.500Z,6.76
2019-02-04T17:38:24.474Z,8.07
2019-02-04T17:41:54.607Z,5.39
2019-02-04T17:45:24.549Z,4.55
2019-02-04T17:48:54.684Z,8.42
2019-02-04T17:52:24.767Z,5.04
2019-02-04T17:55:54.924Z,10.02
2019-02-04T17:59:25.033Z,29.05
2019-02-04T18:00:23.376Z,40.73
2019-02-04T18:03:53.510Z,31.61
2019-02-04T18:07:23.614Z,16.68
2019-02-04T18:10:53.750Z,18.8
2019-02-04T18:14:23.841Z,22.25
2019-02-04T18:17:53.991Z,22.27
2019-02-04T18:21:24.097Z,19.51
2019-02-04T18:24:54.181Z,18.69
2019-02-04T18:28:24.324Z,20.25
2019-02-04T18:31:55.431Z,19.68
2019-02-04T18:35:25.692Z,17.45
2019-02-04T18:38:55.775Z,17.09
2019-02-04T18:42:25.838Z,18.29
2019-02-04T18:45:56.072Z,13.69
2019-02-04T18:49:26.606Z,10.7
2019-02-04T18:52:56.849Z,9.82
2019-02-04T18:56:26.942Z,14.46
2019-02-04T18:59:57.016Z,11.96
2019-02-04T19:03:27.179Z,11.15
2019-02-04T19:06:57.423Z,11.57
2019-02-04T19:10:27.546Z,10.35
2019-02-04T19:13:57.690Z,8.64
2019-02-04T19:17:27.797Z,6.05
2019-02-04T19:20:57.957Z,7.75
2019-02-04T19:24:28.021Z,11.03
2019-02-04T19:27:58.084Z,7.91
2019-02-04T19:31:29.327Z,9.32
2019-02-04T19:35:00.392Z,9.71
2019-02-04T19:38:30.875Z,9.64
2019-02-04T19:42:01.128Z,10.12
2019-02-04T19:45:31.281Z,8.43
2019-02-04T19:49:01.415Z,7.09
2019-02-04T19:52:31.539Z,8.32
2019-02-04T19:56:01.912Z,6.38
2019-02-04T19:59:31.996Z,8.35
2019-02-04T20:00:20.594Z,9.1
2019-02-04T20:03:51.162Z,6.44
2019-02-04T20:07:21.244Z,5.96
2019-02-04T20:10:51.407Z,7.94
2019-02-04T20:14:21.487Z,7.62
2019-02-04T20:18:00.305Z,7.74
2019-02-04T20:21:30.498Z,6.65
2019-02-04T20:25:00.632Z,6.62
2019-02-04T20:28:30.605Z,5.19
2019-02-04T20:32:00.849Z,4.66
2019-02-04T20:35:31.862Z,3.67
2019-02-04T20:39:05.016Z,4.51
2019-02-04T20:42:35.199Z,3.72
2019-02-04T20:46:05.465Z,4.25
2019-02-04T20:49:35.586Z,4.01
2019-02-04T20:53:05.769Z,4.25
2019-02-04T20:56:35.806Z,4.84
2019-02-04T21:00:10.199Z,4.65
2019-02-04T21:03:40.516Z,4.25
2019-02-04T21:07:10.694Z,3.58
2019-02-04T21:10:40.807Z,4.84
2019-02-04T21:14:10.891Z,5.51
2019-02-04T21:17:40.954Z,4.95
2019-02-04T21:21:11.108Z,4.6
2019-02-04T21:24:41.182Z,5.28
2019-02-04T21:28:11.261Z,4.55
2019-02-04T21:31:41.329Z,8.7
2019-02-04T21:35:11.613Z,8.19
2019-02-04T21:38:41.780Z,7.59
2019-02-04T21:42:12.250Z,8.18
2019-02-04T21:45:42.304Z,9.19
2019-02-04T21:49:12.437Z,10.65
2019-02-04T21:52:42.530Z,11.94
2019-02-04T21:56:12.654Z,8.54
2019-02-04T21:59:42.757Z,7.36
2019-02-04T22:00:20.993Z,8.38
2019-02-04T22:03:51.101Z,8.38
2019-02-04T22:07:21.285Z,7.7
2019-02-04T22:10:51.438Z,7.24
2019-02-04T22:14:21.506Z,8.11
2019-02-04T22:17:51.746Z,11.09
2019-02-04T22:21:21.919Z,16.74
2019-02-04T22:24:51.943Z,21.89
2019-02-04T22:28:22.268Z,19.75
2019-02-04T22:31:52.770Z,16.8
2019-02-04T22:35:23.394Z,6.65
2019-02-04T22:38:54.497Z,5.1
2019-02-04T22:42:24.591Z,6.45
2019-02-04T22:45:55.058Z,11.71
2019-02-04T22:49:25.622Z,11.25
2019-02-04T22:52:55.913Z,10.51
2019-02-04T22:56:25.959Z,10.36
2019-02-04T22:59:56.049Z,7.78
2019-02-04T23:03:26.374Z,9.89
2019-02-04T23:06:56.462Z,8.05
2019-02-04T23:10:26.550Z,7.64
2019-02-04T23:13:56.793Z,9.99
2019-02-04T23:17:26.920Z,5.8
2019-02-04T23:20:57.080Z,8.65
2019-02-04T23:24:27.143Z,7.53
2019-02-04T23:27:57.239Z,6.61
2019-02-04T23:31:27.362Z,7.33
2019-02-04T23:34:57.403Z,8.4
2019-02-04T23:38:27.539Z,9.93
2019-02-04T23:41:58.551Z,8.34
2019-02-04T23:45:28.754Z,8.91
2019-02-04T23:48:59.141Z,8.94
2019-02-04T23:52:29.343Z,7.51
2019-02-04T23:55:59.455Z,8.48
2019-02-04T23:59:29.548Z,8.86
